You are not logged in, Click here to log in
內塔吉·蘇巴斯·錢德拉·鮑斯國際機場CCU / VECC 印度共和國西孟加拉邦首府加爾各答近郊德姆德姆的一座國際機場,距加爾各答市中心17公里,原名德姆德姆機
ICAO: VECC Country: 印度共和國西孟加拉邦首府加爾各答近郊德姆德姆的一座國際機場,距加爾各答市中心17公里,原名德姆德姆機
Latitude: 22.6547 Longitude: 88.4467
Total Arrivals: 3 Total Departures: 5
Latest Arrival: G3T13 (VTBS-VECC)Jason. Li Latest Departure: G8121 (VECC-VOHS)Jason. Li
Scenery:
METAR : VECC 090830Z 34005KT 4000 HZ NSC 27/15 Q1014 NOSIG

內塔吉·蘇巴斯·錢德拉·鮑斯國際機場CCU

You are accessing this site from IP address 100.26.176.182. Virtual Airline. CMS by phpVMS.Website designed by Zumeweb and edited by Theo Bearman.
There is 0 User(s) Online: | and 6 Guest(s) Online.
All information on this site is for fight simulation purposes only. This site is for flight logging for pilots of Virtual Airline&模擬飛行論壇 FlySim only.